sensor_id;sensor_type;location;lat;lon;timestamp;P1;durP1;ratioP1;P2;durP2;ratioP2
52798;SDS011;38667;42.872;74.622;2022-12-29T00:00:00;137.43;;;50.70;;
52798;SDS011;38667;42.872;74.622;2022-12-29T00:02:27;146.00;;;52.97;;
52798;SDS011;38667;42.872;74.622;2022-12-29T00:04:53;139.23;;;55.80;;
52798;SDS011;38667;42.872;74.622;2022-12-29T00:07:21;157.63;;;57.80;;
52798;SDS011;38667;42.872;74.622;2022-12-29T00:09:48;150.37;;;56.07;;
52798;SDS011;38667;42.872;74.622;2022-12-29T00:12:14;151.43;;;55.67;;
52798;SDS011;38667;42.872;74.622;2022-12-29T00:14:40;147.90;;;51.80;;
52798;SDS011;38667;42.872;74.622;2022-12-29T00:17:07;124.60;;;46.43;;
52798;SDS011;38667;42.872;74.622;2022-12-29T00:19:33;135.50;;;46.83;;
52798;SDS011;38667;42.872;74.622;2022-12-29T00:21:59;128.23;;;46.60;;
52798;SDS011;38667;42.872;74.622;2022-12-29T00:24:27;111.23;;;42.93;;
52798;SDS011;38667;42.872;74.622;2022-12-29T00:26:55;97.53;;;39.63;;
52798;SDS011;38667;42.872;74.622;2022-12-29T00:29:23;127.77;;;43.27;;
52798;SDS011;38667;42.872;74.622;2022-12-29T00:31:50;146.27;;;45.00;;
52798;SDS011;38667;42.872;74.622;2022-12-29T00:34:16;126.37;;;45.23;;
52798;SDS011;38667;42.872;74.622;2022-12-29T00:36:42;136.23;;;43.50;;
52798;SDS011;38667;42.872;74.622;2022-12-29T00:39:10;134.40;;;45.57;;
52798;SDS011;38667;42.872;74.622;2022-12-29T00:41:42;115.33;;;45.60;;
52798;SDS011;38667;42.872;74.622;2022-12-29T00:44:08;110.30;;;46.10;;
52798;SDS011;38667;42.872;74.622;2022-12-29T00:46:37;110.33;;;49.27;;
52798;SDS011;38667;42.872;74.622;2022-12-29T00:49:05;108.13;;;45.23;;
52798;SDS011;38667;42.872;74.622;2022-12-29T00:51:32;108.13;;;46.17;;
52798;SDS011;38667;42.872;74.622;2022-12-29T00:53:59;106.80;;;47.60;;
52798;SDS011;38667;42.872;74.622;2022-12-29T00:56:25;103.13;;;46.90;;
52798;SDS011;38667;42.872;74.622;2022-12-29T00:58:53;111.27;;;47.47;;
52798;SDS011;38667;42.872;74.622;2022-12-29T01:01:19;96.00;;;44.50;;
52798;SDS011;38667;42.872;74.622;2022-12-29T01:03:46;96.70;;;40.87;;
52798;SDS011;38667;42.872;74.622;2022-12-29T01:06:12;102.63;;;41.63;;
52798;SDS011;38667;42.872;74.622;2022-12-29T01:08:38;107.93;;;41.00;;
52798;SDS011;38667;42.872;74.622;2022-12-29T01:11:05;104.67;;;41.00;;
52798;SDS011;38667;42.872;74.622;2022-12-29T01:13:33;115.53;;;41.37;;
52798;SDS011;38667;42.872;74.622;2022-12-29T01:16:02;93.23;;;40.63;;
52798;SDS011;38667;42.872;74.622;2022-12-29T01:18:28;107.73;;;42.67;;
52798;SDS011;38667;42.872;74.622;2022-12-29T01:20:58;177.37;;;81.67;;
52798;SDS011;38667;42.872;74.622;2022-12-29T01:23:25;124.23;;;53.03;;
52798;SDS011;38667;42.872;74.622;2022-12-29T01:25:51;106.67;;;47.23;;
52798;SDS011;38667;42.872;74.622;2022-12-29T01:28:17;108.53;;;45.93;;
52798;SDS011;38667;42.872;74.622;2022-12-29T01:30:43;97.43;;;41.07;;
52798;SDS011;38667;42.872;74.622;2022-12-29T01:33:11;115.73;;;49.03;;
52798;SDS011;38667;42.872;74.622;2022-12-29T01:35:38;91.73;;;39.63;;
52798;SDS011;38667;42.872;74.622;2022-12-29T01:38:04;94.87;;;42.37;;
52798;SDS011;38667;42.872;74.622;2022-12-29T01:40:31;92.03;;;43.30;;
52798;SDS011;38667;42.872;74.622;2022-12-29T01:42:57;93.97;;;43.47;;
52798;SDS011;38667;42.872;74.622;2022-12-29T01:45:23;93.63;;;44.47;;
52798;SDS011;38667;42.872;74.622;2022-12-29T01:47:50;92.13;;;39.53;;
52798;SDS011;38667;42.872;74.622;2022-12-29T01:50:22;98.13;;;41.27;;
52798;SDS011;38667;42.872;74.622;2022-12-29T01:52:53;81.13;;;40.57;;
52798;SDS011;38667;42.872;74.622;2022-12-29T01:55:24;80.73;;;37.80;;
52798;SDS011;38667;42.872;74.622;2022-12-29T01:57:52;74.13;;;35.90;;
52798;SDS011;38667;42.872;74.622;2022-12-29T02:00:20;72.73;;;35.57;;
52798;SDS011;38667;42.872;74.622;2022-12-29T02:02:47;89.27;;;38.23;;
52798;SDS011;38667;42.872;74.622;2022-12-29T02:05:19;75.83;;;37.20;;
52798;SDS011;38667;42.872;74.622;2022-12-29T02:07:51;85.10;;;35.10;;
52798;SDS011;38667;42.872;74.622;2022-12-29T02:10:19;85.57;;;34.77;;
52798;SDS011;38667;42.872;74.622;2022-12-29T02:12:47;84.93;;;32.63;;
52798;SDS011;38667;42.872;74.622;2022-12-29T02:15:13;176.57;;;54.63;;
52798;SDS011;38667;42.872;74.622;2022-12-29T02:17:48;165.30;;;57.83;;
52798;SDS011;38667;42.872;74.622;2022-12-29T02:23:37;137.07;;;50.13;;
52798;SDS011;38667;42.872;74.622;2022-12-29T02:26:28;158.03;;;54.07;;
52798;SDS011;38667;42.872;74.622;2022-12-29T02:32:07;244.77;;;83.63;;
52798;SDS011;38667;42.872;74.622;2022-12-29T02:34:44;226.23;;;83.43;;
52798;SDS011;38667;42.872;74.622;2022-12-29T02:37:19;204.90;;;75.87;;
52798;SDS011;38667;42.872;74.622;2022-12-29T02:39:50;202.40;;;74.37;;
52798;SDS011;38667;42.872;74.622;2022-12-29T02:42:23;210.87;;;75.97;;
52798;SDS011;38667;42.872;74.622;2022-12-29T02:44:58;206.87;;;71.43;;
52798;SDS011;38667;42.872;74.622;2022-12-29T02:47:30;194.83;;;73.33;;
52798;SDS011;38667;42.872;74.622;2022-12-29T02:50:03;121.87;;;48.83;;
52798;SDS011;38667;42.872;74.622;2022-12-29T02:52:38;136.07;;;50.23;;
52798;SDS011;38667;42.872;74.622;2022-12-29T02:55:10;128.43;;;50.63;;
52798;SDS011;38667;42.872;74.622;2022-12-29T02:57:36;129.57;;;54.00;;
52798;SDS011;38667;42.872;74.622;2022-12-29T03:00:04;137.57;;;55.20;;
52798;SDS011;38667;42.872;74.622;2022-12-29T03:02:38;110.77;;;48.13;;
52798;SDS011;38667;42.872;74.622;2022-12-29T03:05:41;116.20;;;50.60;;
52798;SDS011;38667;42.872;74.622;2022-12-29T03:08:21;132.47;;;53.70;;
52798;SDS011;38667;42.872;74.622;2022-12-29T03:10:56;153.67;;;55.57;;
52798;SDS011;38667;42.872;74.622;2022-12-29T03:13:26;166.40;;;63.80;;
52798;SDS011;38667;42.872;74.622;2022-12-29T03:16:01;180.90;;;68.43;;
52798;SDS011;38667;42.872;74.622;2022-12-29T03:21:17;163.60;;;62.17;;
52798;SDS011;38667;42.872;74.622;2022-12-29T03:23:50;177.00;;;63.17;;
52798;SDS011;38667;42.872;74.622;2022-12-29T03:26:16;162.83;;;59.80;;
52798;SDS011;38667;42.872;74.622;2022-12-29T03:28:46;150.27;;;57.30;;
52798;SDS011;38667;42.872;74.622;2022-12-29T03:31:15;151.20;;;56.53;;
52798;SDS011;38667;42.872;74.622;2022-12-29T03:33:43;158.13;;;56.23;;
52798;SDS011;38667;42.872;74.622;2022-12-29T03:36:13;134.77;;;55.23;;
52798;SDS011;38667;42.872;74.622;2022-12-29T03:38:58;137.83;;;54.63;;
52798;SDS011;38667;42.872;74.622;2022-12-29T03:41:31;131.23;;;53.73;;
52798;SDS011;38667;42.872;74.622;2022-12-29T03:43:58;130.63;;;51.67;;
52798;SDS011;38667;42.872;74.622;2022-12-29T03:46:25;170.80;;;60.30;;
52798;SDS011;38667;42.872;74.622;2022-12-29T03:48:51;379.83;;;107.37;;
52798;SDS011;38667;42.872;74.622;2022-12-29T03:51:19;594.77;;;170.70;;
52798;SDS011;38667;42.872;74.622;2022-12-29T03:53:46;598.47;;;208.77;;
52798;SDS011;38667;42.872;74.622;2022-12-29T03:56:12;601.53;;;216.83;;
52798;SDS011;38667;42.872;74.622;2022-12-29T03:58:38;659.93;;;240.43;;
52798;SDS011;38667;42.872;74.622;2022-12-29T04:01:05;653.93;;;237.70;;
52798;SDS011;38667;42.872;74.622;2022-12-29T04:03:31;580.93;;;215.93;;
52798;SDS011;38667;42.872;74.622;2022-12-29T04:05:57;535.90;;;202.10;;
52798;SDS011;38667;42.872;74.622;2022-12-29T04:08:25;522.77;;;192.53;;
52798;SDS011;38667;42.872;74.622;2022-12-29T04:10:51;507.30;;;185.83;;
52798;SDS011;38667;42.872;74.622;2022-12-29T04:13:18;318.67;;;118.60;;
52798;SDS011;38667;42.872;74.622;2022-12-29T04:15:44;263.73;;;99.50;;
52798;SDS011;38667;42.872;74.622;2022-12-29T04:18:10;230.60;;;89.80;;
52798;SDS011;38667;42.872;74.622;2022-12-29T04:20:37;95.10;;;45.50;;
52798;SDS011;38667;42.872;74.622;2022-12-29T04:23:03;110.67;;;46.53;;
52798;SDS011;38667;42.872;74.622;2022-12-29T04:25:33;94.23;;;42.13;;
52798;SDS011;38667;42.872;74.622;2022-12-29T04:27:59;102.83;;;40.83;;
52798;SDS011;38667;42.872;74.622;2022-12-29T04:30:26;96.90;;;44.70;;
52798;SDS011;38667;42.872;74.622;2022-12-29T04:32:53;80.90;;;33.90;;
52798;SDS011;38667;42.872;74.622;2022-12-29T04:35:19;69.60;;;30.17;;
52798;SDS011;38667;42.872;74.622;2022-12-29T04:37:45;64.37;;;30.27;;
52798;SDS011;38667;42.872;74.622;2022-12-29T04:40:12;73.63;;;34.07;;
52798;SDS011;38667;42.872;74.622;2022-12-29T04:42:40;79.87;;;32.97;;
52798;SDS011;38667;42.872;74.622;2022-12-29T04:45:06;90.67;;;38.10;;
52798;SDS011;38667;42.872;74.622;2022-12-29T04:47:33;104.73;;;37.57;;
52798;SDS011;38667;42.872;74.622;2022-12-29T04:50:00;81.20;;;34.00;;
52798;SDS011;38667;42.872;74.622;2022-12-29T04:52:26;51.70;;;23.57;;
52798;SDS011;38667;42.872;74.622;2022-12-29T04:54:52;51.53;;;23.93;;
52798;SDS011;38667;42.872;74.622;2022-12-29T04:57:19;48.23;;;21.13;;
52798;SDS011;38667;42.872;74.622;2022-12-29T04:59:47;41.70;;;20.63;;
52798;SDS011;38667;42.872;74.622;2022-12-29T05:02:13;43.13;;;21.10;;
52798;SDS011;38667;42.872;74.622;2022-12-29T05:04:39;52.17;;;23.00;;
52798;SDS011;38667;42.872;74.622;2022-12-29T05:07:06;50.00;;;22.30;;
52798;SDS011;38667;42.872;74.622;2022-12-29T05:09:32;284.90;;;131.50;;
52798;SDS011;38667;42.872;74.622;2022-12-29T05:11:58;334.03;;;148.17;;
52798;SDS011;38667;42.872;74.622;2022-12-29T05:14:25;357.57;;;168.77;;
52798;SDS011;38667;42.872;74.622;2022-12-29T05:16:53;412.47;;;186.97;;
52798;SDS011;38667;42.872;74.622;2022-12-29T05:19:19;409.77;;;197.83;;
52798;SDS011;38667;42.872;74.622;2022-12-29T05:21:46;448.40;;;220.63;;
52798;SDS011;38667;42.872;74.622;2022-12-29T05:24:12;444.63;;;214.90;;
52798;SDS011;38667;42.872;74.622;2022-12-29T05:26:38;465.50;;;220.03;;
52798;SDS011;38667;42.872;74.622;2022-12-29T05:29:05;431.27;;;218.03;;
52798;SDS011;38667;42.872;74.622;2022-12-29T05:31:31;448.80;;;221.90;;
52798;SDS011;38667;42.872;74.622;2022-12-29T05:34:00;447.30;;;218.33;;
52798;SDS011;38667;42.872;74.622;2022-12-29T05:36:26;437.23;;;213.97;;
52798;SDS011;38667;42.872;74.622;2022-12-29T05:38:52;344.40;;;161.00;;
52798;SDS011;38667;42.872;74.622;2022-12-29T05:41:19;346.87;;;165.27;;
52798;SDS011;38667;42.872;74.622;2022-12-29T05:43:45;354.57;;;169.07;;
52798;SDS011;38667;42.872;74.622;2022-12-29T05:46:11;377.97;;;178.03;;
52798;SDS011;38667;42.872;74.622;2022-12-29T05:48:38;334.90;;;154.03;;
52798;SDS011;38667;42.872;74.622;2022-12-29T05:51:06;303.67;;;140.70;;
52798;SDS011;38667;42.872;74.622;2022-12-29T05:53:32;287.50;;;135.53;;
52798;SDS011;38667;42.872;74.622;2022-12-29T05:55:59;245.07;;;120.43;;
52798;SDS011;38667;42.872;74.622;2022-12-29T05:58:25;255.63;;;117.47;;
52798;SDS011;38667;42.872;74.622;2022-12-29T06:00:51;228.97;;;107.03;;
52798;SDS011;38667;42.872;74.622;2022-12-29T06:03:17;235.33;;;109.63;;
52798;SDS011;38667;42.872;74.622;2022-12-29T06:05:44;196.57;;;93.43;;
52798;SDS011;38667;42.872;74.622;2022-12-29T06:08:12;212.57;;;96.40;;
52798;SDS011;38667;42.872;74.622;2022-12-29T06:10:38;205.40;;;93.40;;
52798;SDS011;38667;42.872;74.622;2022-12-29T06:13:04;195.80;;;91.47;;
52798;SDS011;38667;42.872;74.622;2022-12-29T06:15:31;181.93;;;88.30;;
52798;SDS011;38667;42.872;74.622;2022-12-29T06:17:58;171.60;;;81.83;;
52798;SDS011;38667;42.872;74.622;2022-12-29T06:20:24;128.77;;;61.97;;
52798;SDS011;38667;42.872;74.622;2022-12-29T06:22:51;113.77;;;50.27;;
52798;SDS011;38667;42.872;74.622;2022-12-29T06:25:19;102.00;;;45.27;;
52798;SDS011;38667;42.872;74.622;2022-12-29T06:27:45;91.10;;;39.00;;
52798;SDS011;38667;42.872;74.622;2022-12-29T06:30:12;85.73;;;34.83;;
52798;SDS011;38667;42.872;74.622;2022-12-29T06:32:38;70.47;;;32.00;;
52798;SDS011;38667;42.872;74.622;2022-12-29T06:35:05;72.63;;;32.90;;
52798;SDS011;38667;42.872;74.622;2022-12-29T06:37:31;57.80;;;27.97;;
52798;SDS011;38667;42.872;74.622;2022-12-29T06:39:58;58.83;;;28.20;;
52798;SDS011;38667;42.872;74.622;2022-12-29T06:42:26;65.33;;;28.23;;
52798;SDS011;38667;42.872;74.622;2022-12-29T06:44:52;61.37;;;28.60;;
52798;SDS011;38667;42.872;74.622;2022-12-29T06:47:18;78.93;;;35.63;;
52798;SDS011;38667;42.872;74.622;2022-12-29T06:49:45;102.47;;;45.60;;
52798;SDS011;38667;42.872;74.622;2022-12-29T06:52:11;138.93;;;60.97;;
52798;SDS011;38667;42.872;74.622;2022-12-29T06:54:37;183.23;;;80.13;;
52798;SDS011;38667;42.872;74.622;2022-12-29T06:57:04;168.03;;;82.47;;
52798;SDS011;38667;42.872;74.622;2022-12-29T06:59:32;149.43;;;72.93;;
52798;SDS011;38667;42.872;74.622;2022-12-29T07:01:58;144.63;;;66.90;;
52798;SDS011;38667;42.872;74.622;2022-12-29T07:04:24;129.43;;;61.70;;
52798;SDS011;38667;42.872;74.622;2022-12-29T07:06:51;120.30;;;57.87;;
52798;SDS011;38667;42.872;74.622;2022-12-29T07:09:17;121.10;;;53.23;;
52798;SDS011;38667;42.872;74.622;2022-12-29T07:11:43;101.63;;;48.30;;
52798;SDS011;38667;42.872;74.622;2022-12-29T07:14:10;107.83;;;45.90;;
52798;SDS011;38667;42.872;74.622;2022-12-29T07:16:38;116.47;;;52.40;;
52798;SDS011;38667;42.872;74.622;2022-12-29T07:19:04;121.53;;;53.37;;
52798;SDS011;38667;42.872;74.622;2022-12-29T07:21:31;119.40;;;52.70;;
52798;SDS011;38667;42.872;74.622;2022-12-29T07:23:57;120.63;;;52.10;;
52798;SDS011;38667;42.872;74.622;2022-12-29T07:26:23;115.23;;;51.13;;
52798;SDS011;38667;42.872;74.622;2022-12-29T07:28:50;114.93;;;47.67;;
52798;SDS011;38667;42.872;74.622;2022-12-29T07:31:16;113.43;;;46.50;;
52798;SDS011;38667;42.872;74.622;2022-12-29T07:33:46;86.32;;;42.03;;
52798;SDS011;38667;42.872;74.622;2022-12-29T07:36:12;96.37;;;40.67;;
52798;SDS011;38667;42.872;74.622;2022-12-29T07:38:39;91.37;;;39.17;;
52798;SDS011;38667;42.872;74.622;2022-12-29T07:41:05;92.23;;;39.17;;
52798;SDS011;38667;42.872;74.622;2022-12-29T07:43:31;75.43;;;37.47;;
52798;SDS011;38667;42.872;74.622;2022-12-29T07:45:58;83.23;;;36.87;;
52798;SDS011;38667;42.872;74.622;2022-12-29T07:48:24;80.83;;;37.90;;
52798;SDS011;38667;42.872;74.622;2022-12-29T07:50:52;84.60;;;36.57;;
52798;SDS011;38667;42.872;74.622;2022-12-29T07:53:19;82.20;;;36.97;;
52798;SDS011;38667;42.872;74.622;2022-12-29T07:55:45;66.87;;;32.30;;
52798;SDS011;38667;42.872;74.622;2022-12-29T07:58:11;71.93;;;33.70;;
52798;SDS011;38667;42.872;74.622;2022-12-29T08:00:38;75.70;;;34.43;;
52798;SDS011;38667;42.872;74.622;2022-12-29T08:03:04;75.87;;;34.57;;
52798;SDS011;38667;42.872;74.622;2022-12-29T08:05:31;75.33;;;31.13;;
52798;SDS011;38667;42.872;74.622;2022-12-29T08:08:00;60.03;;;29.43;;
52798;SDS011;38667;42.872;74.622;2022-12-29T08:10:26;66.33;;;29.87;;
52798;SDS011;38667;42.872;74.622;2022-12-29T08:12:53;65.37;;;30.77;;
52798;SDS011;38667;42.872;74.622;2022-12-29T08:15:19;65.10;;;30.43;;
52798;SDS011;38667;42.872;74.622;2022-12-29T08:17:45;52.43;;;27.30;;
52798;SDS011;38667;42.872;74.622;2022-12-29T08:20:12;60.83;;;27.67;;
52798;SDS011;38667;42.872;74.622;2022-12-29T08:22:38;53.17;;;26.80;;
52798;SDS011;38667;42.872;74.622;2022-12-29T08:25:07;58.77;;;26.03;;
52798;SDS011;38667;42.872;74.622;2022-12-29T08:27:33;57.93;;;25.80;;
52798;SDS011;38667;42.872;74.622;2022-12-29T08:30:00;60.57;;;29.10;;
52798;SDS011;38667;42.872;74.622;2022-12-29T08:32:26;63.17;;;27.97;;
52798;SDS011;38667;42.872;74.622;2022-12-29T08:34:52;56.80;;;25.33;;
52798;SDS011;38667;42.872;74.622;2022-12-29T08:37:19;50.57;;;24.83;;
52798;SDS011;38667;42.872;74.622;2022-12-29T08:39:45;55.43;;;23.47;;
52798;SDS011;38667;42.872;74.622;2022-12-29T08:42:13;68.13;;;28.67;;
52798;SDS011;38667;42.872;74.622;2022-12-29T08:44:39;52.83;;;24.30;;
52798;SDS011;38667;42.872;74.622;2022-12-29T08:47:05;54.83;;;24.10;;
52798;SDS011;38667;42.872;74.622;2022-12-29T08:49:32;62.83;;;25.20;;
52798;SDS011;38667;42.872;74.622;2022-12-29T08:51:58;61.50;;;25.97;;
52798;SDS011;38667;42.872;74.622;2022-12-29T08:54:25;57.57;;;25.67;;
52798;SDS011;38667;42.872;74.622;2022-12-29T08:56:51;65.87;;;26.50;;
52798;SDS011;38667;42.872;74.622;2022-12-29T08:59:19;52.60;;;24.90;;
52798;SDS011;38667;42.872;74.622;2022-12-29T09:01:45;62.63;;;25.37;;
52798;SDS011;38667;42.872;74.622;2022-12-29T09:04:11;58.77;;;25.70;;
52798;SDS011;38667;42.872;74.622;2022-12-29T09:06:38;57.30;;;24.73;;
52798;SDS011;38667;42.872;74.622;2022-12-29T09:09:04;53.53;;;24.87;;
52798;SDS011;38667;42.872;74.622;2022-12-29T09:11:30;60.03;;;25.63;;
52798;SDS011;38667;42.872;74.622;2022-12-29T09:13:57;52.97;;;24.97;;
52798;SDS011;38667;42.872;74.622;2022-12-29T09:16:25;55.70;;;26.40;;
52798;SDS011;38667;42.872;74.622;2022-12-29T09:18:51;51.73;;;25.63;;
52798;SDS011;38667;42.872;74.622;2022-12-29T09:21:17;52.43;;;26.30;;
52798;SDS011;38667;42.872;74.622;2022-12-29T09:23:44;56.33;;;25.83;;
52798;SDS011;38667;42.872;74.622;2022-12-29T09:26:10;57.97;;;26.90;;
52798;SDS011;38667;42.872;74.622;2022-12-29T09:28:36;53.93;;;26.07;;
52798;SDS011;38667;42.872;74.622;2022-12-29T09:31:03;56.87;;;26.70;;
52798;SDS011;38667;42.872;74.622;2022-12-29T09:33:31;54.57;;;26.73;;
52798;SDS011;38667;42.872;74.622;2022-12-29T09:35:57;59.87;;;29.87;;
52798;SDS011;38667;42.872;74.622;2022-12-29T09:38:24;60.57;;;31.00;;
52798;SDS011;38667;42.872;74.622;2022-12-29T09:40:52;65.53;;;31.33;;
52798;SDS011;38667;42.872;74.622;2022-12-29T09:43:24;79.50;;;34.03;;
52798;SDS011;38667;42.872;74.622;2022-12-29T09:46:07;67.37;;;33.10;;
52798;SDS011;38667;42.872;74.622;2022-12-29T09:48:44;73.00;;;34.57;;
52798;SDS011;38667;42.872;74.622;2022-12-29T09:51:15;69.47;;;33.40;;
52798;SDS011;38667;42.872;74.622;2022-12-29T09:53:48;71.00;;;33.00;;
52798;SDS011;38667;42.872;74.622;2022-12-29T09:56:19;72.63;;;34.67;;
52798;SDS011;38667;42.872;74.622;2022-12-29T09:58:49;68.27;;;33.70;;
52798;SDS011;38667;42.872;74.622;2022-12-29T10:01:21;67.60;;;34.10;;
52798;SDS011;38667;42.872;74.622;2022-12-29T10:03:56;67.17;;;33.97;;
52798;SDS011;38667;42.872;74.622;2022-12-29T10:06:24;65.03;;;32.50;;
52798;SDS011;38667;42.872;74.622;2022-12-29T10:08:57;72.87;;;32.57;;
52798;SDS011;38667;42.872;74.622;2022-12-29T10:11:35;66.53;;;32.37;;
52798;SDS011;38667;42.872;74.622;2022-12-29T10:14:20;69.47;;;31.97;;
52798;SDS011;38667;42.872;74.622;2022-12-29T10:17:01;64.97;;;31.53;;
52798;SDS011;38667;42.872;74.622;2022-12-29T10:19:43;67.13;;;32.30;;
52798;SDS011;38667;42.872;74.622;2022-12-29T10:22:21;63.87;;;31.37;;
52798;SDS011;38667;42.872;74.622;2022-12-29T10:24:56;67.47;;;29.73;;
52798;SDS011;38667;42.872;74.622;2022-12-29T10:27:23;57.17;;;27.67;;
52798;SDS011;38667;42.872;74.622;2022-12-29T10:29:50;57.67;;;28.80;;
52798;SDS011;38667;42.872;74.622;2022-12-29T10:32:22;58.37;;;29.70;;
52798;SDS011;38667;42.872;74.622;2022-12-29T10:34:56;67.90;;;31.70;;
52798;SDS011;38667;42.872;74.622;2022-12-29T10:37:30;65.83;;;30.53;;
52798;SDS011;38667;42.872;74.622;2022-12-29T10:40:11;66.07;;;31.50;;
52798;SDS011;38667;42.872;74.622;2022-12-29T10:42:45;63.60;;;31.43;;
52798;SDS011;38667;42.872;74.622;2022-12-29T10:45:15;62.53;;;29.30;;
52798;SDS011;38667;42.872;74.622;2022-12-29T10:47:46;68.30;;;29.33;;
52798;SDS011;38667;42.872;74.622;2022-12-29T10:50:20;59.00;;;30.47;;
52798;SDS011;38667;42.872;74.622;2022-12-29T10:52:48;63.70;;;29.97;;
52798;SDS011;38667;42.872;74.622;2022-12-29T10:55:15;70.60;;;30.63;;
52798;SDS011;38667;42.872;74.622;2022-12-29T10:57:46;68.00;;;31.60;;
52798;SDS011;38667;42.872;74.622;2022-12-29T11:00:14;67.77;;;30.27;;
52798;SDS011;38667;42.872;74.622;2022-12-29T11:02:45;63.57;;;32.10;;
52798;SDS011;38667;42.872;74.622;2022-12-29T11:05:29;73.30;;;32.40;;
52798;SDS011;38667;42.872;74.622;2022-12-29T11:08:01;66.97;;;32.07;;
52798;SDS011;38667;42.872;74.622;2022-12-29T11:10:30;76.03;;;33.97;;
52798;SDS011;38667;42.872;74.622;2022-12-29T11:13:02;75.30;;;35.20;;
52798;SDS011;38667;42.872;74.622;2022-12-29T11:15:38;88.90;;;36.60;;
52798;SDS011;38667;42.872;74.622;2022-12-29T11:18:07;79.53;;;37.43;;
52798;SDS011;38667;42.872;74.622;2022-12-29T11:20:45;78.67;;;37.20;;
52798;SDS011;38667;42.872;74.622;2022-12-29T11:23:23;81.07;;;39.03;;
52798;SDS011;38667;42.872;74.622;2022-12-29T11:26:06;89.97;;;39.90;;
52798;SDS011;38667;42.872;74.622;2022-12-29T11:28:41;87.03;;;40.50;;
52798;SDS011;38667;42.872;74.622;2022-12-29T11:31:09;100.47;;;42.17;;
52798;SDS011;38667;42.872;74.622;2022-12-29T11:33:36;82.80;;;39.87;;
52798;SDS011;38667;42.872;74.622;2022-12-29T11:36:06;89.67;;;40.73;;
52798;SDS011;38667;42.872;74.622;2022-12-29T11:38:37;89.47;;;42.50;;
52798;SDS011;38667;42.872;74.622;2022-12-29T11:41:06;90.13;;;42.57;;
52798;SDS011;38667;42.872;74.622;2022-12-29T11:43:37;88.47;;;41.30;;
52798;SDS011;38667;42.872;74.622;2022-12-29T11:46:05;91.63;;;40.70;;
52798;SDS011;38667;42.872;74.622;2022-12-29T11:48:38;87.67;;;39.97;;
52798;SDS011;38667;42.872;74.622;2022-12-29T11:51:08;89.37;;;40.93;;
52798;SDS011;38667;42.872;74.622;2022-12-29T11:53:37;92.73;;;41.27;;
52798;SDS011;38667;42.872;74.622;2022-12-29T11:56:08;96.87;;;44.00;;
52798;SDS011;38667;42.872;74.622;2022-12-29T11:58:38;88.23;;;42.63;;
52798;SDS011;38667;42.872;74.622;2022-12-29T12:01:05;89.90;;;42.73;;
52798;SDS011;38667;42.872;74.622;2022-12-29T12:03:37;91.83;;;42.77;;
52798;SDS011;38667;42.872;74.622;2022-12-29T12:06:11;85.97;;;39.77;;
52798;SDS011;38667;42.872;74.622;2022-12-29T12:08:42;91.70;;;40.53;;
52798;SDS011;38667;42.872;74.622;2022-12-29T12:11:12;83.00;;;39.27;;
52798;SDS011;38667;42.872;74.622;2022-12-29T12:13:42;88.17;;;40.43;;
52798;SDS011;38667;42.872;74.622;2022-12-29T12:16:19;86.20;;;40.33;;
52798;SDS011;38667;42.872;74.622;2022-12-29T12:18:50;95.97;;;42.70;;
52798;SDS011;38667;42.872;74.622;2022-12-29T12:21:25;90.53;;;42.20;;
52798;SDS011;38667;42.872;74.622;2022-12-29T12:24:07;89.70;;;42.10;;
52798;SDS011;38667;42.872;74.622;2022-12-29T12:26:50;90.83;;;39.10;;
52798;SDS011;38667;42.872;74.622;2022-12-29T12:29:22;82.20;;;38.53;;
52798;SDS011;38667;42.872;74.622;2022-12-29T12:31:54;85.97;;;37.67;;
52798;SDS011;38667;42.872;74.622;2022-12-29T12:34:23;84.60;;;39.20;;
52798;SDS011;38667;42.872;74.622;2022-12-29T12:37:00;78.40;;;38.60;;
52798;SDS011;38667;42.872;74.622;2022-12-29T12:39:42;89.87;;;43.30;;
52798;SDS011;38667;42.872;74.622;2022-12-29T12:42:19;91.23;;;44.17;;
52798;SDS011;38667;42.872;74.622;2022-12-29T12:44:58;96.13;;;45.53;;
52798;SDS011;38667;42.872;74.622;2022-12-29T12:47:43;116.20;;;53.87;;
52798;SDS011;38667;42.872;74.622;2022-12-29T12:50:30;126.50;;;55.10;;
52798;SDS011;38667;42.872;74.622;2022-12-29T12:53:14;136.87;;;54.97;;
52798;SDS011;38667;42.872;74.622;2022-12-29T12:58:48;125.93;;;55.63;;
52798;SDS011;38667;42.872;74.622;2022-12-29T13:01:23;134.87;;;57.57;;
52798;SDS011;38667;42.872;74.622;2022-12-29T13:04:05;124.47;;;54.90;;
52798;SDS011;38667;42.872;74.622;2022-12-29T13:06:45;122.63;;;54.40;;
52798;SDS011;38667;42.872;74.622;2022-12-29T13:12:14;127.77;;;55.23;;
52798;SDS011;38667;42.872;74.622;2022-12-29T13:14:50;125.03;;;57.63;;
52798;SDS011;38667;42.872;74.622;2022-12-29T13:17:26;138.30;;;60.17;;
52798;SDS011;38667;42.872;74.622;2022-12-29T13:20:02;131.07;;;58.40;;
52798;SDS011;38667;42.872;74.622;2022-12-29T13:22:38;127.80;;;57.50;;
52798;SDS011;38667;42.872;74.622;2022-12-29T13:25:21;125.43;;;53.93;;
52798;SDS011;38667;42.872;74.622;2022-12-29T13:27:59;133.47;;;57.00;;
52798;SDS011;38667;42.872;74.622;2022-12-29T13:30:30;125.57;;;55.50;;
52798;SDS011;38667;42.872;74.622;2022-12-29T13:33:03;133.57;;;56.00;;
52798;SDS011;38667;42.872;74.622;2022-12-29T13:35:40;108.97;;;51.83;;
52798;SDS011;38667;42.872;74.622;2022-12-29T13:38:17;127.50;;;56.30;;
52798;SDS011;38667;42.872;74.622;2022-12-29T13:40:50;132.87;;;59.23;;
52798;SDS011;38667;42.872;74.622;2022-12-29T13:43:20;140.27;;;62.33;;
52798;SDS011;38667;42.872;74.622;2022-12-29T13:45:50;132.57;;;61.17;;
52798;SDS011;38667;42.872;74.622;2022-12-29T13:48:23;138.07;;;59.93;;
52798;SDS011;38667;42.872;74.622;2022-12-29T13:50:58;126.50;;;57.47;;
52798;SDS011;38667;42.872;74.622;2022-12-29T13:53:27;119.03;;;56.30;;
52798;SDS011;38667;42.872;74.622;2022-12-29T13:56:05;127.33;;;58.23;;
52798;SDS011;38667;42.872;74.622;2022-12-29T13:58:35;130.83;;;55.70;;
52798;SDS011;38667;42.872;74.622;2022-12-29T14:01:10;119.27;;;55.60;;
52798;SDS011;38667;42.872;74.622;2022-12-29T14:03:44;121.27;;;53.50;;
52798;SDS011;38667;42.872;74.622;2022-12-29T14:06:14;127.03;;;56.97;;
52798;SDS011;38667;42.872;74.622;2022-12-29T14:08:46;120.07;;;55.97;;
52798;SDS011;38667;42.872;74.622;2022-12-29T14:11:15;129.23;;;57.60;;
52798;SDS011;38667;42.872;74.622;2022-12-29T14:13:45;137.57;;;59.70;;
52798;SDS011;38667;42.872;74.622;2022-12-29T14:16:21;137.47;;;59.70;;
52798;SDS011;38667;42.872;74.622;2022-12-29T14:18:52;129.47;;;57.17;;
52798;SDS011;38667;42.872;74.622;2022-12-29T14:21:20;133.83;;;60.60;;
52798;SDS011;38667;42.872;74.622;2022-12-29T14:23:49;129.53;;;58.73;;
52798;SDS011;38667;42.872;74.622;2022-12-29T14:26:18;122.07;;;56.87;;
52798;SDS011;38667;42.872;74.622;2022-12-29T14:29:15;128.23;;;56.63;;